sensor_id;sensor_type;location;lat;lon;timestamp;temperature;humidity
3628;DHT22;1830;49.000;12.074;2023-01-05T00:01:00;9.20;99.90
3628;DHT22;1830;49.000;12.074;2023-01-05T00:03:27;9.20;99.90
3628;DHT22;1830;49.000;12.074;2023-01-05T00:05:58;9.20;99.90
3628;DHT22;1830;49.000;12.074;2023-01-05T00:08:24;9.20;99.90
3628;DHT22;1830;49.000;12.074;2023-01-05T00:10:51;9.30;99.90
3628;DHT22;1830;49.000;12.074;2023-01-05T00:13:47;9.10;99.90
3628;DHT22;1830;49.000;12.074;2023-01-05T00:16:33;9.10;99.90
3628;DHT22;1830;49.000;12.074;2023-01-05T00:19:17;9.20;99.90
3628;DHT22;1830;49.000;12.074;2023-01-05T00:22:01;9.20;99.90
3628;DHT22;1830;49.000;12.074;2023-01-05T00:24:46;9.10;99.90
3628;DHT22;1830;49.000;12.074;2023-01-05T00:27:13;9.10;99.90
3628;DHT22;1830;49.000;12.074;2023-01-05T00:29:39;9.10;99.90
3628;DHT22;1830;49.000;12.074;2023-01-05T00:32:07;9.10;99.90
3628;DHT22;1830;49.000;12.074;2023-01-05T00:34:34;9.10;99.90
3628;DHT22;1830;49.000;12.074;2023-01-05T00:37:01;9.20;99.90
3628;DHT22;1830;49.000;12.074;2023-01-05T00:39:28;9.10;99.90
3628;DHT22;1830;49.000;12.074;2023-01-05T00:41:54;9.10;99.90
3628;DHT22;1830;49.000;12.074;2023-01-05T00:44:21;8.90;99.90
3628;DHT22;1830;49.000;12.074;2023-01-05T00:46:48;8.90;99.90
3628;DHT22;1830;49.000;12.074;2023-01-05T00:49:16;9.00;99.90
3628;DHT22;1830;49.000;12.074;2023-01-05T00:51:43;9.00;99.90
3628;DHT22;1830;49.000;12.074;2023-01-05T00:54:10;8.90;99.90
3628;DHT22;1830;49.000;12.074;2023-01-05T00:56:36;8.90;99.90
3628;DHT22;1830;49.000;12.074;2023-01-05T00:59:03;8.90;99.90
3628;DHT22;1830;49.000;12.074;2023-01-05T01:01:30;9.00;99.90
3628;DHT22;1830;49.000;12.074;2023-01-05T01:03:57;9.00;99.90
3628;DHT22;1830;49.000;12.074;2023-01-05T01:06:26;9.00;99.90
3628;DHT22;1830;49.000;12.074;2023-01-05T01:08:53;9.00;99.90
3628;DHT22;1830;49.000;12.074;2023-01-05T01:11:20;9.00;99.90
3628;DHT22;1830;49.000;12.074;2023-01-05T01:13:46;9.20;99.90
3628;DHT22;1830;49.000;12.074;2023-01-05T01:16:14;9.10;99.90
3628;DHT22;1830;49.000;12.074;2023-01-05T01:18:42;9.10;99.90
3628;DHT22;1830;49.000;12.074;2023-01-05T01:21:09;9.10;99.90
3628;DHT22;1830;49.000;12.074;2023-01-05T01:23:37;9.20;99.90
3628;DHT22;1830;49.000;12.074;2023-01-05T01:26:04;9.10;99.90
3628;DHT22;1830;49.000;12.074;2023-01-05T01:28:32;9.10;99.90
3628;DHT22;1830;49.000;12.074;2023-01-05T01:30:59;9.10;99.90
3628;DHT22;1830;49.000;12.074;2023-01-05T01:33:26;9.10;99.90
3628;DHT22;1830;49.000;12.074;2023-01-05T01:35:52;9.20;99.90
3628;DHT22;1830;49.000;12.074;2023-01-05T01:38:20;9.20;99.90
3628;DHT22;1830;49.000;12.074;2023-01-05T01:40:48;9.20;99.90
3628;DHT22;1830;49.000;12.074;2023-01-05T01:43:17;9.20;99.90
3628;DHT22;1830;49.000;12.074;2023-01-05T01:45:44;9.20;99.90
3628;DHT22;1830;49.000;12.074;2023-01-05T01:48:15;9.10;99.90
3628;DHT22;1830;49.000;12.074;2023-01-05T01:50:45;9.10;99.90
3628;DHT22;1830;49.000;12.074;2023-01-05T01:53:15;9.10;99.90
3628;DHT22;1830;49.000;12.074;2023-01-05T01:55:44;9.20;99.90
3628;DHT22;1830;49.000;12.074;2023-01-05T01:58:16;9.10;99.90
3628;DHT22;1830;49.000;12.074;2023-01-05T02:00:45;9.20;99.90
3628;DHT22;1830;49.000;12.074;2023-01-05T02:03:13;9.20;99.90
3628;DHT22;1830;49.000;12.074;2023-01-05T02:05:40;9.10;99.90
3628;DHT22;1830;49.000;12.074;2023-01-05T02:08:10;9.30;99.90
3628;DHT22;1830;49.000;12.074;2023-01-05T02:10:54;9.20;99.90
3628;DHT22;1830;49.000;12.074;2023-01-05T02:13:34;9.10;99.90
3628;DHT22;1830;49.000;12.074;2023-01-05T02:16:08;9.10;99.90
3628;DHT22;1830;49.000;12.074;2023-01-05T02:18:55;9.30;99.90
3628;DHT22;1830;49.000;12.074;2023-01-05T02:21:33;9.20;99.90
3628;DHT22;1830;49.000;12.074;2023-01-05T02:24:30;9.30;99.90
3628;DHT22;1830;49.000;12.074;2023-01-05T02:27:28;9.30;99.90
3628;DHT22;1830;49.000;12.074;2023-01-05T02:32:59;9.30;99.90
3628;DHT22;1830;49.000;12.074;2023-01-05T02:35:32;9.20;99.90
3628;DHT22;1830;49.000;12.074;2023-01-05T02:38:08;9.20;99.90
3628;DHT22;1830;49.000;12.074;2023-01-05T02:40:40;9.20;99.90
3628;DHT22;1830;49.000;12.074;2023-01-05T02:43:09;9.20;99.90
3628;DHT22;1830;49.000;12.074;2023-01-05T02:45:36;9.20;99.90
3628;DHT22;1830;49.000;12.074;2023-01-05T02:48:04;9.30;99.90
3628;DHT22;1830;49.000;12.074;2023-01-05T02:50:34;9.30;99.90
3628;DHT22;1830;49.000;12.074;2023-01-05T02:53:06;9.20;99.90
3628;DHT22;1830;49.000;12.074;2023-01-05T02:55:36;9.10;99.90
3628;DHT22;1830;49.000;12.074;2023-01-05T02:58:09;9.20;99.90
3628;DHT22;1830;49.000;12.074;2023-01-05T03:00:41;9.40;99.90
3628;DHT22;1830;49.000;12.074;2023-01-05T03:03:14;9.30;99.90
3628;DHT22;1830;49.000;12.074;2023-01-05T03:05:49;9.20;99.90
3628;DHT22;1830;49.000;12.074;2023-01-05T03:08:20;9.20;99.90
3628;DHT22;1830;49.000;12.074;2023-01-05T03:10:58;9.20;99.90
3628;DHT22;1830;49.000;12.074;2023-01-05T03:13:46;9.30;99.90
3628;DHT22;1830;49.000;12.074;2023-01-05T03:16:19;9.10;99.90
3628;DHT22;1830;49.000;12.074;2023-01-05T03:18:49;9.20;99.90
3628;DHT22;1830;49.000;12.074;2023-01-05T03:21:34;9.10;99.90
3628;DHT22;1830;49.000;12.074;2023-01-05T03:24:20;9.10;99.90
3628;DHT22;1830;49.000;12.074;2023-01-05T03:27:05;9.00;99.90
3628;DHT22;1830;49.000;12.074;2023-01-05T03:29:51;8.90;99.90
3628;DHT22;1830;49.000;12.074;2023-01-05T03:32:41;9.00;99.90
3628;DHT22;1830;49.000;12.074;2023-01-05T03:35:31;9.00;99.90
3628;DHT22;1830;49.000;12.074;2023-01-05T03:38:05;9.10;99.90
3628;DHT22;1830;49.000;12.074;2023-01-05T03:40:34;9.00;99.90
3628;DHT22;1830;49.000;12.074;2023-01-05T03:43:03;9.00;99.90
3628;DHT22;1830;49.000;12.074;2023-01-05T03:45:37;8.90;99.90
3628;DHT22;1830;49.000;12.074;2023-01-05T03:48:05;8.90;99.90
3628;DHT22;1830;49.000;12.074;2023-01-05T03:50:33;8.90;99.90
3628;DHT22;1830;49.000;12.074;2023-01-05T03:53:00;8.90;99.90
3628;DHT22;1830;49.000;12.074;2023-01-05T03:55:27;9.00;99.90
3628;DHT22;1830;49.000;12.074;2023-01-05T03:57:54;8.90;99.90
3628;DHT22;1830;49.000;12.074;2023-01-05T04:00:21;8.90;99.90
3628;DHT22;1830;49.000;12.074;2023-01-05T04:02:49;8.90;99.90
3628;DHT22;1830;49.000;12.074;2023-01-05T04:05:16;8.90;99.90
3628;DHT22;1830;49.000;12.074;2023-01-05T04:07:44;8.90;99.90
3628;DHT22;1830;49.000;12.074;2023-01-05T04:10:10;8.90;99.90
3628;DHT22;1830;49.000;12.074;2023-01-05T04:12:37;9.00;99.90
3628;DHT22;1830;49.000;12.074;2023-01-05T04:15:05;9.00;99.90
3628;DHT22;1830;49.000;12.074;2023-01-05T04:17:32;9.30;99.90
3628;DHT22;1830;49.000;12.074;2023-01-05T04:19:58;9.30;99.90
3628;DHT22;1830;49.000;12.074;2023-01-05T04:22:25;9.30;99.90
3628;DHT22;1830;49.000;12.074;2023-01-05T04:24:53;9.20;99.90
3628;DHT22;1830;49.000;12.074;2023-01-05T04:27:20;9.10;99.90
3628;DHT22;1830;49.000;12.074;2023-01-05T04:29:47;9.30;99.90
3628;DHT22;1830;49.000;12.074;2023-01-05T04:32:13;9.30;99.90
3628;DHT22;1830;49.000;12.074;2023-01-05T04:34:40;9.20;99.90
3628;DHT22;1830;49.000;12.074;2023-01-05T04:37:07;9.10;99.90
3628;DHT22;1830;49.000;12.074;2023-01-05T04:39:33;9.20;99.90
3628;DHT22;1830;49.000;12.074;2023-01-05T04:42:01;9.10;99.90
3628;DHT22;1830;49.000;12.074;2023-01-05T04:44:28;9.20;99.90
3628;DHT22;1830;49.000;12.074;2023-01-05T04:46:55;9.20;99.90
3628;DHT22;1830;49.000;12.074;2023-01-05T04:49:22;9.20;99.90
3628;DHT22;1830;49.000;12.074;2023-01-05T04:51:48;9.20;99.90
3628;DHT22;1830;49.000;12.074;2023-01-05T04:54:15;9.20;99.90
3628;DHT22;1830;49.000;12.074;2023-01-05T04:56:42;9.20;99.90
3628;DHT22;1830;49.000;12.074;2023-01-05T04:59:10;9.20;99.90
3628;DHT22;1830;49.000;12.074;2023-01-05T05:01:37;9.20;99.90
3628;DHT22;1830;49.000;12.074;2023-01-05T05:04:04;9.30;99.90
3628;DHT22;1830;49.000;12.074;2023-01-05T05:06:30;9.30;99.90
3628;DHT22;1830;49.000;12.074;2023-01-05T05:08:57;9.30;99.90
3628;DHT22;1830;49.000;12.074;2023-01-05T05:11:24;9.20;99.90
3628;DHT22;1830;49.000;12.074;2023-01-05T05:13:51;9.30;99.90
3628;DHT22;1830;49.000;12.074;2023-01-05T05:16:19;9.30;99.90
3628;DHT22;1830;49.000;12.074;2023-01-05T05:18:45;9.30;99.90
3628;DHT22;1830;49.000;12.074;2023-01-05T05:21:12;9.40;99.90
3628;DHT22;1830;49.000;12.074;2023-01-05T05:23:39;9.30;99.90
3628;DHT22;1830;49.000;12.074;2023-01-05T05:26:05;9.20;99.90
3628;DHT22;1830;49.000;12.074;2023-01-05T05:28:32;9.30;99.90
3628;DHT22;1830;49.000;12.074;2023-01-05T05:30:59;9.20;99.90
3628;DHT22;1830;49.000;12.074;2023-01-05T05:33:27;9.30;99.90
3628;DHT22;1830;49.000;12.074;2023-01-05T05:35:54;9.30;99.90
3628;DHT22;1830;49.000;12.074;2023-01-05T05:38:21;9.30;99.90
3628;DHT22;1830;49.000;12.074;2023-01-05T05:40:48;9.40;99.90
3628;DHT22;1830;49.000;12.074;2023-01-05T05:43:15;9.40;99.90
3628;DHT22;1830;49.000;12.074;2023-01-05T05:45:42;9.40;99.90
3628;DHT22;1830;49.000;12.074;2023-01-05T05:48:08;9.50;99.90
3628;DHT22;1830;49.000;12.074;2023-01-05T05:50:36;9.50;99.90
3628;DHT22;1830;49.000;12.074;2023-01-05T05:53:03;9.60;99.90
3628;DHT22;1830;49.000;12.074;2023-01-05T05:55:30;9.50;99.90
3628;DHT22;1830;49.000;12.074;2023-01-05T05:57:57;9.50;99.90
3628;DHT22;1830;49.000;12.074;2023-01-05T06:00:24;9.60;99.90
3628;DHT22;1830;49.000;12.074;2023-01-05T06:02:51;9.70;99.90
3628;DHT22;1830;49.000;12.074;2023-01-05T06:05:17;9.70;99.90
3628;DHT22;1830;49.000;12.074;2023-01-05T06:07:45;9.70;99.90
3628;DHT22;1830;49.000;12.074;2023-01-05T06:10:12;9.80;99.90
3628;DHT22;1830;49.000;12.074;2023-01-05T06:12:39;9.70;99.90
3628;DHT22;1830;49.000;12.074;2023-01-05T06:15:07;9.70;99.90
3628;DHT22;1830;49.000;12.074;2023-01-05T06:17:34;9.60;99.90
3628;DHT22;1830;49.000;12.074;2023-01-05T06:20:00;9.60;99.90
3628;DHT22;1830;49.000;12.074;2023-01-05T06:22:27;9.70;99.90
3628;DHT22;1830;49.000;12.074;2023-01-05T06:24:55;9.60;99.90
3628;DHT22;1830;49.000;12.074;2023-01-05T06:27:22;9.50;99.90
3628;DHT22;1830;49.000;12.074;2023-01-05T06:29:48;9.60;99.90
3628;DHT22;1830;49.000;12.074;2023-01-05T06:32:15;9.60;99.90
3628;DHT22;1830;49.000;12.074;2023-01-05T06:34:42;9.70;99.90
3628;DHT22;1830;49.000;12.074;2023-01-05T06:37:09;9.60;99.90
3628;DHT22;1830;49.000;12.074;2023-01-05T06:39:35;9.60;99.90
3628;DHT22;1830;49.000;12.074;2023-01-05T06:42:03;9.60;99.90
3628;DHT22;1830;49.000;12.074;2023-01-05T06:44:30;9.50;99.90
3628;DHT22;1830;49.000;12.074;2023-01-05T06:46:57;9.60;99.90
3628;DHT22;1830;49.000;12.074;2023-01-05T06:49:24;9.70;99.90
3628;DHT22;1830;49.000;12.074;2023-01-05T06:51:50;9.60;99.90
3628;DHT22;1830;49.000;12.074;2023-01-05T06:54:17;9.50;99.90
3628;DHT22;1830;49.000;12.074;2023-01-05T06:56:44;9.50;99.90
3628;DHT22;1830;49.000;12.074;2023-01-05T06:59:12;9.50;99.90
3628;DHT22;1830;49.000;12.074;2023-01-05T07:01:39;9.70;99.90
3628;DHT22;1830;49.000;12.074;2023-01-05T07:04:06;9.70;99.90
3628;DHT22;1830;49.000;12.074;2023-01-05T07:06:33;9.60;99.90
3628;DHT22;1830;49.000;12.074;2023-01-05T07:09:00;9.50;99.90
3628;DHT22;1830;49.000;12.074;2023-01-05T07:11:27;9.40;99.90
3628;DHT22;1830;49.000;12.074;2023-01-05T07:13:54;9.60;99.90
3628;DHT22;1830;49.000;12.074;2023-01-05T07:16:22;9.70;99.90
3628;DHT22;1830;49.000;12.074;2023-01-05T07:18:49;9.60;99.90
3628;DHT22;1830;49.000;12.074;2023-01-05T07:21:15;9.80;99.90
3628;DHT22;1830;49.000;12.074;2023-01-05T07:23:42;9.80;99.90
3628;DHT22;1830;49.000;12.074;2023-01-05T07:26:09;9.70;99.90
3628;DHT22;1830;49.000;12.074;2023-01-05T07:28:36;9.50;99.90
3628;DHT22;1830;49.000;12.074;2023-01-05T07:31:03;9.40;99.90
3628;DHT22;1830;49.000;12.074;2023-01-05T07:33:33;9.60;99.90
3628;DHT22;1830;49.000;12.074;2023-01-05T07:36:00;9.50;99.90
3628;DHT22;1830;49.000;12.074;2023-01-05T07:38:27;9.60;99.90
3628;DHT22;1830;49.000;12.074;2023-01-05T07:40:57;9.40;99.90
3628;DHT22;1830;49.000;12.074;2023-01-05T07:43:24;9.50;99.90
3628;DHT22;1830;49.000;12.074;2023-01-05T07:45:50;9.40;99.90
3628;DHT22;1830;49.000;12.074;2023-01-05T07:48:17;9.40;99.90
3628;DHT22;1830;49.000;12.074;2023-01-05T07:50:45;9.30;99.90
3628;DHT22;1830;49.000;12.074;2023-01-05T07:53:12;9.40;99.90
3628;DHT22;1830;49.000;12.074;2023-01-05T07:55:39;9.60;99.90
3628;DHT22;1830;49.000;12.074;2023-01-05T07:58:06;9.60;99.90
3628;DHT22;1830;49.000;12.074;2023-01-05T08:00:32;9.50;99.90
3628;DHT22;1830;49.000;12.074;2023-01-05T08:02:59;9.60;99.90
3628;DHT22;1830;49.000;12.074;2023-01-05T08:05:26;9.60;99.90
3628;DHT22;1830;49.000;12.074;2023-01-05T08:07:59;9.60;99.90
3628;DHT22;1830;49.000;12.074;2023-01-05T08:10:26;9.60;99.90
3628;DHT22;1830;49.000;12.074;2023-01-05T08:12:59;9.70;99.90
3628;DHT22;1830;49.000;12.074;2023-01-05T08:15:44;9.60;99.90
3628;DHT22;1830;49.000;12.074;2023-01-05T08:18:11;9.60;99.90
3628;DHT22;1830;49.000;12.074;2023-01-05T08:20:37;9.60;99.90
3628;DHT22;1830;49.000;12.074;2023-01-05T08:23:05;9.70;99.90
3628;DHT22;1830;49.000;12.074;2023-01-05T08:25:33;9.60;99.90
3628;DHT22;1830;49.000;12.074;2023-01-05T08:27:59;9.50;99.90
3628;DHT22;1830;49.000;12.074;2023-01-05T08:30:26;9.50;99.90
3628;DHT22;1830;49.000;12.074;2023-01-05T08:32:53;9.40;99.90
3628;DHT22;1830;49.000;12.074;2023-01-05T08:35:20;9.60;99.90
3628;DHT22;1830;49.000;12.074;2023-01-05T08:37:46;9.50;99.90
3628;DHT22;1830;49.000;12.074;2023-01-05T08:40:14;9.40;99.90
3628;DHT22;1830;49.000;12.074;2023-01-05T08:42:41;9.20;99.90
3628;DHT22;1830;49.000;12.074;2023-01-05T08:45:10;9.40;99.90
3628;DHT22;1830;49.000;12.074;2023-01-05T08:47:36;9.50;99.90
3628;DHT22;1830;49.000;12.074;2023-01-05T08:50:04;9.50;99.90
3628;DHT22;1830;49.000;12.074;2023-01-05T08:52:31;9.30;99.90
3628;DHT22;1830;49.000;12.074;2023-01-05T08:54:58;9.30;99.90
3628;DHT22;1830;49.000;12.074;2023-01-05T08:57:26;9.30;99.90
3628;DHT22;1830;49.000;12.074;2023-01-05T08:59:53;9.30;99.90
3628;DHT22;1830;49.000;12.074;2023-01-05T09:02:20;9.30;99.90
3628;DHT22;1830;49.000;12.074;2023-01-05T09:04:46;9.30;99.90
3628;DHT22;1830;49.000;12.074;2023-01-05T09:07:13;9.50;99.90
3628;DHT22;1830;49.000;12.074;2023-01-05T09:09:40;9.40;99.90
3628;DHT22;1830;49.000;12.074;2023-01-05T09:12:07;9.40;99.90
3628;DHT22;1830;49.000;12.074;2023-01-05T09:14:35;9.30;99.90
3628;DHT22;1830;49.000;12.074;2023-01-05T09:17:02;9.30;99.90
3628;DHT22;1830;49.000;12.074;2023-01-05T09:19:28;9.30;99.90
3628;DHT22;1830;49.000;12.074;2023-01-05T09:21:55;9.30;99.90
3628;DHT22;1830;49.000;12.074;2023-01-05T09:24:22;9.40;99.90
3628;DHT22;1830;49.000;12.074;2023-01-05T09:26:49;9.30;99.90
3628;DHT22;1830;49.000;12.074;2023-01-05T09:29:16;9.30;99.90
3628;DHT22;1830;49.000;12.074;2023-01-05T09:31:44;9.30;99.90
3628;DHT22;1830;49.000;12.074;2023-01-05T09:34:11;9.30;99.90
3628;DHT22;1830;49.000;12.074;2023-01-05T09:36:37;9.40;99.90
3628;DHT22;1830;49.000;12.074;2023-01-05T09:39:05;9.30;99.90
3628;DHT22;1830;49.000;12.074;2023-01-05T09:41:35;9.30;99.90
3628;DHT22;1830;49.000;12.074;2023-01-05T09:44:05;9.50;99.90
3628;DHT22;1830;49.000;12.074;2023-01-05T09:46:40;9.60;99.90
3628;DHT22;1830;49.000;12.074;2023-01-05T09:49:12;9.40;99.90
3628;DHT22;1830;49.000;12.074;2023-01-05T09:51:39;9.50;99.90
3628;DHT22;1830;49.000;12.074;2023-01-05T09:54:10;9.50;99.90
3628;DHT22;1830;49.000;12.074;2023-01-05T09:56:43;9.30;99.90
3628;DHT22;1830;49.000;12.074;2023-01-05T09:59:13;9.20;99.90
3628;DHT22;1830;49.000;12.074;2023-01-05T10:01:41;9.30;99.90
3628;DHT22;1830;49.000;12.074;2023-01-05T10:04:14;9.50;99.90
3628;DHT22;1830;49.000;12.074;2023-01-05T10:06:44;9.40;99.90
3628;DHT22;1830;49.000;12.074;2023-01-05T10:09:16;9.40;99.90
3628;DHT22;1830;49.000;12.074;2023-01-05T10:11:48;9.40;99.90
3628;DHT22;1830;49.000;12.074;2023-01-05T10:14:38;9.30;99.90
3628;DHT22;1830;49.000;12.074;2023-01-05T10:17:10;9.40;99.90
3628;DHT22;1830;49.000;12.074;2023-01-05T10:19:39;9.40;99.90
3628;DHT22;1830;49.000;12.074;2023-01-05T10:22:21;9.40;99.90
3628;DHT22;1830;49.000;12.074;2023-01-05T10:24:54;9.40;99.90
3628;DHT22;1830;49.000;12.074;2023-01-05T10:27:25;9.40;99.90
3628;DHT22;1830;49.000;12.074;2023-01-05T10:29:59;9.40;99.90
3628;DHT22;1830;49.000;12.074;2023-01-05T10:32:35;9.40;99.90
3628;DHT22;1830;49.000;12.074;2023-01-05T10:35:21;9.60;99.90
3628;DHT22;1830;49.000;12.074;2023-01-05T10:38:02;9.50;99.90
3628;DHT22;1830;49.000;12.074;2023-01-05T10:40:44;9.50;99.90
3628;DHT22;1830;49.000;12.074;2023-01-05T10:43:33;9.60;99.90
3628;DHT22;1830;49.000;12.074;2023-01-05T10:46:03;9.60;99.90
3628;DHT22;1830;49.000;12.074;2023-01-05T10:48:33;9.70;99.90
3628;DHT22;1830;49.000;12.074;2023-01-05T10:51:03;9.70;99.90
3628;DHT22;1830;49.000;12.074;2023-01-05T10:53:34;9.60;99.90
3628;DHT22;1830;49.000;12.074;2023-01-05T10:56:04;9.60;99.90
3628;DHT22;1830;49.000;12.074;2023-01-05T10:58:34;9.60;99.90
3628;DHT22;1830;49.000;12.074;2023-01-05T11:01:04;9.60;99.90
3628;DHT22;1830;49.000;12.074;2023-01-05T11:03:38;9.70;99.90
3628;DHT22;1830;49.000;12.074;2023-01-05T11:06:07;9.70;99.90
3628;DHT22;1830;49.000;12.074;2023-01-05T11:08:44;9.60;99.90
3628;DHT22;1830;49.000;12.074;2023-01-05T11:11:19;9.90;99.90
3628;DHT22;1830;49.000;12.074;2023-01-05T11:13:48;9.80;99.90
3628;DHT22;1830;49.000;12.074;2023-01-05T11:16:17;9.90;99.90
3628;DHT22;1830;49.000;12.074;2023-01-05T11:18:48;9.80;99.90
3628;DHT22;1830;49.000;12.074;2023-01-05T11:21:18;9.80;99.90
3628;DHT22;1830;49.000;12.074;2023-01-05T11:23:47;9.80;99.90
3628;DHT22;1830;49.000;12.074;2023-01-05T11:26:35;9.70;99.90
3628;DHT22;1830;49.000;12.074;2023-01-05T11:29:12;9.80;99.90
3628;DHT22;1830;49.000;12.074;2023-01-05T11:31:49;9.80;99.90
3628;DHT22;1830;49.000;12.074;2023-01-05T11:34:37;9.70;99.90
3628;DHT22;1830;49.000;12.074;2023-01-05T11:37:13;9.70;99.90
3628;DHT22;1830;49.000;12.074;2023-01-05T11:39:49;9.60;99.90
3628;DHT22;1830;49.000;12.074;2023-01-05T11:42:18;9.70;99.90
3628;DHT22;1830;49.000;12.074;2023-01-05T11:44:48;9.70;99.90
3628;DHT22;1830;49.000;12.074;2023-01-05T11:47:24;9.80;99.90
3628;DHT22;1830;49.000;12.074;2023-01-05T11:49:57;9.80;99.90
3628;DHT22;1830;49.000;12.074;2023-01-05T11:52:32;9.80;99.90
3628;DHT22;1830;49.000;12.074;2023-01-05T11:58:22;10.10;99.90
3628;DHT22;1830;49.000;12.074;2023-01-05T12:04:10;10.00;99.90
3628;DHT22;1830;49.000;12.074;2023-01-05T12:07:04;10.00;99.90
3628;DHT22;1830;49.000;12.074;2023-01-05T12:09:36;10.00;99.90
3628;DHT22;1830;49.000;12.074;2023-01-05T12:15:39;9.90;99.90
3628;DHT22;1830;49.000;12.074;2023-01-05T12:18:26;10.00;99.90
3628;DHT22;1830;49.000;12.074;2023-01-05T12:20:56;10.20;99.90
3628;DHT22;1830;49.000;12.074;2023-01-05T12:23:47;10.10;99.90
3628;DHT22;1830;49.000;12.074;2023-01-05T12:26:22;10.20;99.90
3628;DHT22;1830;49.000;12.074;2023-01-05T12:32:32;10.20;99.90
3628;DHT22;1830;49.000;12.074;2023-01-05T12:35:20;10.20;99.90
3628;DHT22;1830;49.000;12.074;2023-01-05T12:38:05;10.30;99.90
3628;DHT22;1830;49.000;12.074;2023-01-05T12:40:55;10.30;99.90
3628;DHT22;1830;49.000;12.074;2023-01-05T12:43:38;10.20;99.90
3628;DHT22;1830;49.000;12.074;2023-01-05T12:46:15;10.30;99.90
3628;DHT22;1830;49.000;12.074;2023-01-05T12:48:48;10.30;99.90
3628;DHT22;1830;49.000;12.074;2023-01-05T12:51:18;10.50;99.90
3628;DHT22;1830;49.000;12.074;2023-01-05T12:53:53;10.60;99.90
3628;DHT22;1830;49.000;12.074;2023-01-05T12:56:26;10.40;99.90
3628;DHT22;1830;49.000;12.074;2023-01-05T12:59:04;10.40;99.90
3628;DHT22;1830;49.000;12.074;2023-01-05T13:01:37;10.60;99.90
3628;DHT22;1830;49.000;12.074;2023-01-05T13:04:23;10.50;99.90
3628;DHT22;1830;49.000;12.074;2023-01-05T13:06:55;10.40;99.90
3628;DHT22;1830;49.000;12.074;2023-01-05T13:09:23;10.60;99.90
3628;DHT22;1830;49.000;12.074;2023-01-05T13:11:56;10.60;99.90
3628;DHT22;1830;49.000;12.074;2023-01-05T13:14:27;10.50;99.90
3628;DHT22;1830;49.000;12.074;2023-01-05T13:16:58;10.50;99.90
3628;DHT22;1830;49.000;12.074;2023-01-05T13:19:29;10.40;99.90
3628;DHT22;1830;49.000;12.074;2023-01-05T13:22:01;10.40;99.90
3628;DHT22;1830;49.000;12.074;2023-01-05T13:24:32;10.40;99.90
3628;DHT22;1830;49.000;12.074;2023-01-05T13:27:01;10.20;99.90
3628;DHT22;1830;49.000;12.074;2023-01-05T13:29:32;10.30;99.90
3628;DHT22;1830;49.000;12.074;2023-01-05T13:32:13;10.20;99.90
3628;DHT22;1830;49.000;12.074;2023-01-05T13:37:46;10.10;99.90
3628;DHT22;1830;49.000;12.074;2023-01-05T13:40:26;10.30;99.90
3628;DHT22;1830;49.000;12.074;2023-01-05T13:43:24;10.20;99.90
3628;DHT22;1830;49.000;12.074;2023-01-05T13:46:09;10.30;99.90
3628;DHT22;1830;49.000;12.074;2023-01-05T13:49:04;10.20;99.90
3628;DHT22;1830;49.000;12.074;2023-01-05T13:51:49;10.30;99.90
3628;DHT22;1830;49.000;12.074;2023-01-05T13:54:19;10.10;99.90
3628;DHT22;1830;49.000;12.074;2023-01-05T13:56:48;10.00;99.90
3628;DHT22;1830;49.000;12.074;2023-01-05T13:59:26;9.90;99.90
3628;DHT22;1830;49.000;12.074;2023-01-05T14:01:56;10.00;99.90
3628;DHT22;1830;49.000;12.074;2023-01-05T14:04:27;9.80;99.90
3628;DHT22;1830;49.000;12.074;2023-01-05T14:06:57;9.80;99.90
3628;DHT22;1830;49.000;12.074;2023-01-05T14:09:29;9.80;99.90
3628;DHT22;1830;49.000;12.074;2023-01-05T14:12:31;9.70;99.90
3628;DHT22;1830;49.000;12.074;2023-01-05T14:15:31;9.80;99.90
3628;DHT22;1830;49.000;12.074;2023-01-05T14:17:59;9.90;99.90
3628;DHT22;1830;49.000;12.074;2023-01-05T14:20:39;10.00;99.90
3628;DHT22;1830;49.000;12.074;2023-01-05T14:26:11;9.70;99.90
3628;DHT22;1830;49.000;12.074;2023-01-05T14:28:46;9.90;99.90
3628;DHT22;1830;49.000;12.074;2023-01-05T14:31:42;9.80;99.90
3628;DHT22;1830;49.000;12.074;2023-01-05T14:34:15;9.90;99.90
3628;DHT22;1830;49.000;12.074;2023-01-05T14:36:43;9.90;99.90
3628;DHT22;1830;49.000;12.074;2023-01-05T14:39:23;9.90;99.90
3628;DHT22;1830;49.000;12.074;2023-01-05T14:42:13;9.70;99.90
3628;DHT22;1830;49.000;12.074;2023-01-05T14:44:46;9.70;99.90
3628;DHT22;1830;49.000;12.074;2023-01-05T14:47:15;9.70;99.90
3628;DHT22;1830;49.000;12.074;2023-01-05T14:49:51;9.80;99.90
3628;DHT22;1830;49.000;12.074;2023-01-05T14:52:51;9.80;99.90
3628;DHT22;1830;49.000;12.074;2023-01-05T14:55:23;9.80;99.90
3628;DHT22;1830;49.000;12.074;2023-01-05T14:57:56;9.60;99.90
3628;DHT22;1830;49.000;12.074;2023-01-05T15:00:45;9.60;99.90
3628;DHT22;1830;49.000;12.074;2023-01-05T15:03:31;9.60;99.90
3628;DHT22;1830;49.000;12.074;2023-01-05T15:06:04;9.70;99.90
3628;DHT22;1830;49.000;12.074;2023-01-05T15:09:13;9.70;99.90
3628;DHT22;1830;49.000;12.074;2023-01-05T15:11:57;9.70;99.90
3628;DHT22;1830;49.000;12.074;2023-01-05T15:21:08;9.60;99.90
3628;DHT22;1830;49.000;12.074;2023-01-05T15:23:59;9.50;99.90
3628;DHT22;1830;49.000;12.074;2023-01-05T15:26:48;9.60;99.90
3628;DHT22;1830;49.000;12.074;2023-01-05T15:29:50;9.40;99.90
3628;DHT22;1830;49.000;12.074;2023-01-05T15:32:22;9.40;99.90
3628;DHT22;1830;49.000;12.074;2023-01-05T15:34:54;9.60;99.90
3628;DHT22;1830;49.000;12.074;2023-01-05T15:37:28;9.40;99.90
3628;DHT22;1830;49.000;12.074;2023-01-05T15:39:56;9.50;99.90
3628;DHT22;1830;49.000;12.074;2023-01-05T15:42:27;9.30;99.90
3628;DHT22;1830;49.000;12.074;2023-01-05T15:44:59;9.20;99.90
3628;DHT22;1830;49.000;12.074;2023-01-05T15:47:27;9.20;99.90
3628;DHT22;1830;49.000;12.074;2023-01-05T15:49:56;9.10;99.90
3628;DHT22;1830;49.000;12.074;2023-01-05T15:52:28;9.10;99.90
3628;DHT22;1830;49.000;12.074;2023-01-05T15:54:59;9.20;99.90
3628;DHT22;1830;49.000;12.074;2023-01-05T15:57:27;9.20;99.90
3628;DHT22;1830;49.000;12.074;2023-01-05T15:59:54;9.10;99.90
3628;DHT22;1830;49.000;12.074;2023-01-05T16:02:23;9.00;99.90
3628;DHT22;1830;49.000;12.074;2023-01-05T16:05:10;9.00;99.90
3628;DHT22;1830;49.000;12.074;2023-01-05T16:07:40;9.00;99.90
3628;DHT22;1830;49.000;12.074;2023-01-05T16:10:16;9.10;99.90
3628;DHT22;1830;49.000;12.074;2023-01-05T16:12:44;8.90;99.90
3628;DHT22;1830;49.000;12.074;2023-01-05T16:15:13;8.90;99.90
3628;DHT22;1830;49.000;12.074;2023-01-05T16:17:42;8.80;99.90
3628;DHT22;1830;49.000;12.074;2023-01-05T16:20:13;8.80;99.90
3628;DHT22;1830;49.000;12.074;2023-01-05T16:22:43;8.90;99.90
3628;DHT22;1830;49.000;12.074;2023-01-05T16:25:15;9.00;99.90
3628;DHT22;1830;49.000;12.074;2023-01-05T16:27:46;8.90;99.90
3628;DHT22;1830;49.000;12.074;2023-01-05T16:30:26;9.10;99.90
3628;DHT22;1830;49.000;12.074;2023-01-05T16:32:59;9.00;99.90
3628;DHT22;1830;49.000;12.074;2023-01-05T16:35:33;8.90;99.90
3628;DHT22;1830;49.000;12.074;2023-01-05T16:38:23;8.90;99.90
3628;DHT22;1830;49.000;12.074;2023-01-05T16:41:08;9.00;99.90
3628;DHT22;1830;49.000;12.074;2023-01-05T16:43:40;9.00;99.90
3628;DHT22;1830;49.000;12.074;2023-01-05T16:49:32;8.90;99.90
3628;DHT22;1830;49.000;12.074;2023-01-05T16:52:01;8.90;99.90
3628;DHT22;1830;49.000;12.074;2023-01-05T16:54:30;8.80;99.90
3628;DHT22;1830;49.000;12.074;2023-01-05T16:59:55;8.70;99.90
3628;DHT22;1830;49.000;12.074;2023-01-05T17:02:44;8.70;99.90
3628;DHT22;1830;49.000;12.074;2023-01-05T17:05:17;8.60;99.90